Time,TemperatureF,DewpointF,PressureIn,WindDirection,WindDirectionDegrees,WindSpeedMPH,WindSpeedGustMPH,Humidity,HourlyPrecipIn,Conditions,Clouds,dailyrainin,SoftwareType,DateUTC
2013-07-31 00:04:00,62.1,58.0,30.13,NE,52,0.0,0.0,85,0.00,,,0.00,weatherlink.com 1.10,2013-07-31 04:04:00,
2013-07-31 00:19:00,62.0,58.0,30.14,NE,52,0.0,0.0,86,0.00,,,0.00,weatherlink.com 1.10,2013-07-31 04:19:00,
2013-07-31 00:34:00,60.9,57.0,30.14,NE,52,0.0,0.0,88,0.00,,,0.00,weatherlink.com 1.10,2013-07-31 04:34:00,
2013-07-31 00:49:00,59.9,57.0,30.14,NE,52,0.0,0.0,90,0.00,,,0.00,weatherlink.com 1.10,2013-07-31 04:49:00,
2013-07-31 01:04:00,59.3,57.0,30.14,NE,52,0.0,0.0,92,0.00,,,0.00,weatherlink.com 1.10,2013-07-31 05:04:00,
2013-07-31 01:19:00,58.7,57.0,30.14,NE,52,0.0,0.0,93,0.00,,,0.00,weatherlink.com 1.10,2013-07-31 05:19:00,
2013-07-31 01:34:00,58.5,57.0,30.13,NE,52,0.0,0.0,93,0.00,,,0.00,weatherlink.com 1.10,2013-07-31 05:34:00,
2013-07-31 01:50:00,58.2,56.0,30.14,NE,52,0.0,0.0,93,0.00,,,0.00,weatherlink.com 1.10,2013-07-31 05:50:00,
2013-07-31 02:05:00,57.8,56.0,30.14,NE,52,0.0,0.0,94,0.00,,,0.00,weatherlink.com 1.10,2013-07-31 06:05:00,
2013-07-31 02:20:00,57.4,56.0,30.13,NE,52,0.0,0.0,95,0.00,,,0.00,weatherlink.com 1.10,2013-07-31 06:20:00,
2013-07-31 02:35:00,57.2,56.0,30.14,NE,52,0.0,0.0,96,0.00,,,0.00,weatherlink.com 1.10,2013-07-31 06:35:00,
2013-07-31 02:50:00,57.2,56.0,30.14,NE,52,0.0,0.0,96,0.00,,,0.00,weatherlink.com 1.10,2013-07-31 06:50:00,
2013-07-31 03:05:00,56.9,56.0,30.14,NE,52,0.0,0.0,96,0.00,,,0.00,weatherlink.com 1.10,2013-07-31 07:05:00,
2013-07-31 03:20:00,56.5,55.0,30.13,NE,52,0.0,0.0,96,0.00,,,0.00,weatherlink.com 1.10,2013-07-31 07:20:00,
2013-07-31 03:35:00,56.2,55.0,30.14,NE,52,0.0,0.0,96,0.00,,,0.00,weatherlink.com 1.10,2013-07-31 07:35:00,
2013-07-31 03:50:00,55.8,55.0,30.14,NE,52,0.0,0.0,96,0.00,,,0.00,weatherlink.com 1.10,2013-07-31 07:50:00,
2013-07-31 04:05:00,56.1,55.0,30.14,NE,51,0.0,0.0,96,0.00,,,0.00,weatherlink.com 1.10,2013-07-31 08:05:00,
2013-07-31 04:20:00,55.6,55.0,30.14,NE,51,0.0,0.0,96,0.00,,,0.00,weatherlink.com 1.10,2013-07-31 08:20:00,
2013-07-31 04:35:00,55.0,54.0,30.14,NE,51,0.0,0.0,96,0.00,,,0.00,weatherlink.com 1.10,2013-07-31 08:35:00,
2013-07-31 04:50:00,54.8,54.0,30.14,NE,51,0.0,0.0,97,0.00,,,0.00,weatherlink.com 1.10,2013-07-31 08:50:00,
2013-07-31 05:05:00,54.7,54.0,30.15,NE,51,0.0,0.0,97,0.00,,,0.00,weatherlink.com 1.10,2013-07-31 09:05:00,
2013-07-31 05:20:00,55.0,54.0,30.15,NE,51,0.0,0.0,97,0.00,,,0.00,weatherlink.com 1.10,2013-07-31 09:20:00,
2013-07-31 05:35:00,54.7,54.0,30.15,NE,51,0.0,0.0,97,0.00,,,0.00,weatherlink.com 1.10,2013-07-31 09:35:00,
2013-07-31 05:50:00,54.9,54.0,30.16,NE,51,0.0,0.0,98,0.00,,,0.00,weatherlink.com 1.10,2013-07-31 09:50:00,
2013-07-31 06:05:00,54.3,54.0,30.16,NE,51,0.0,0.0,97,0.00,,,0.00,weatherlink.com 1.10,2013-07-31 10:05:00,
2013-07-31 06:20:00,53.8,53.0,30.17,NE,51,0.0,0.0,97,0.00,,,0.00,weatherlink.com 1.10,2013-07-31 10:20:00,
2013-07-31 06:35:00,53.8,53.0,30.17,NE,51,0.0,0.0,97,0.00,,,0.00,weatherlink.com 1.10,2013-07-31 10:35:00,
2013-07-31 06:50:00,54.0,54.0,30.17,NE,51,0.0,0.0,98,0.00,,,0.00,weatherlink.com 1.10,2013-07-31 10:50:00,
2013-07-31 07:05:00,54.3,54.0,30.18,NE,51,0.0,0.0,98,0.00,,,0.00,weatherlink.com 1.10,2013-07-31 11:05:00,
2013-07-31 07:20:00,55.7,56.0,30.18,NE,51,0.0,0.0,99,0.00,,,0.00,weatherlink.com 1.10,2013-07-31 11:20:00,
2013-07-31 07:35:00,57.6,57.0,30.18,NE,51,0.0,0.0,99,0.00,,,0.00,weatherlink.com 1.10,2013-07-31 11:35:00,
2013-07-31 07:50:00,58.7,58.0,30.18,NE,51,0.0,0.0,96,0.00,,,0.00,weatherlink.com 1.10,2013-07-31 11:50:00,
2013-07-31 08:05:00,60.2,58.0,30.18,NE,51,0.0,0.0,92,0.00,,,0.00,weatherlink.com 1.10,2013-07-31 12:05:00,
2013-07-31 08:20:00,62.3,59.0,30.18,ENE,63,0.0,0.0,88,0.00,,,0.00,weatherlink.com 1.10,2013-07-31 12:20:00,
2013-07-31 08:35:00,63.9,60.0,30.18,ENE,63,0.0,0.0,86,0.00,,,0.00,weatherlink.com 1.10,2013-07-31 12:35:00,
2013-07-31 08:50:00,65.4,61.0,30.17,ENE,63,0.0,0.0,84,0.00,,,0.00,weatherlink.com 1.10,2013-07-31 12:50:00,
2013-07-31 09:05:00,66.8,60.0,30.17,ENE,63,0.0,0.0,80,0.00,,,0.00,weatherlink.com 1.10,2013-07-31 13:05:00,
2013-07-31 09:20:00,69.2,61.0,30.16,ENE,63,0.0,0.0,74,0.00,,,0.00,weatherlink.com 1.10,2013-07-31 13:20:00,
2013-07-31 09:35:00,70.6,62.0,30.16,ESE,105,0.0,0.0,73,0.00,,,0.00,weatherlink.com 1.10,2013-07-31 13:35:00,
2013-07-31 09:50:00,72.1,61.0,30.16,ESE,123,0.0,0.0,67,0.00,,,0.00,weatherlink.com 1.10,2013-07-31 13:50:00,
2013-07-31 10:06:00,72.7,62.0,30.15,SSW,197,0.0,3.0,68,0.00,,,0.00,weatherlink.com 1.10,2013-07-31 14:06:00,
2013-07-31 10:21:00,73.2,60.0,30.15,SSW,208,1.0,2.0,64,0.00,,,0.00,weatherlink.com 1.10,2013-07-31 14:21:00,
2013-07-31 10:36:00,74.8,62.0,30.15,South,186,0.0,2.0,65,0.00,,,0.00,weatherlink.com 1.10,2013-07-31 14:36:00,
2013-07-31 10:51:00,74.1,61.0,30.15,SSE,157,0.0,3.0,63,0.00,,,0.00,weatherlink.com 1.10,2013-07-31 14:51:00,
2013-07-31 11:06:00,74.9,60.0,30.14,East,79,0.0,0.0,60,0.00,,,0.00,weatherlink.com 1.10,2013-07-31 15:06:00,
2013-07-31 11:21:00,76.5,60.0,30.14,South,187,0.0,4.0,56,0.00,,,0.00,weatherlink.com 1.10,2013-07-31 15:21:00,
2013-07-31 11:36:00,77.3,61.0,30.14,SSW,194,4.0,5.0,58,0.00,,,0.00,weatherlink.com 1.10,2013-07-31 15:36:00,
2013-07-31 11:51:00,77.0,60.0,30.13,East,96,0.0,4.0,55,0.00,,,0.00,weatherlink.com 1.10,2013-07-31 15:51:00,
2013-07-31 12:06:00,77.8,61.0,30.13,South,173,0.0,3.0,57,0.00,,,0.00,weatherlink.com 1.10,2013-07-31 16:06:00,
2013-07-31 12:21:00,77.3,59.0,30.12,NNE,14,0.0,3.0,54,0.00,,,0.00,weatherlink.com 1.10,2013-07-31 16:21:00,
2013-07-31 12:36:00,77.3,62.0,30.12,SE,136,1.0,3.0,60,0.00,,,0.00,weatherlink.com 1.10,2013-07-31 16:36:00,
2013-07-31 12:51:00,78.0,61.0,30.12,South,169,1.0,4.0,57,0.00,,,0.00,weatherlink.com 1.10,2013-07-31 16:51:00,
2013-07-31 13:06:00,79.2,63.0,30.11,ENE,63,0.0,3.0,58,0.00,,,0.00,weatherlink.com 1.10,2013-07-31 17:06:00,
2013-07-31 13:36:00,79.7,62.0,30.11,SE,146,0.0,5.0,55,0.00,,,0.00,weatherlink.com 1.10,2013-07-31 17:36:00,
2013-07-31 13:52:00,79.9,63.0,30.10,SSE,157,2.0,5.0,57,0.00,,,0.00,weatherlink.com 1.10,2013-07-31 17:52:00,
2013-07-31 14:06:00,79.4,62.0,30.10,SE,140,1.0,6.0,55,0.00,,,0.00,weatherlink.com 1.10,2013-07-31 18:06:00,
2013-07-31 14:21:00,78.8,62.0,30.09,SW,217,1.0,7.0,56,0.00,,,0.00,weatherlink.com 1.10,2013-07-31 18:21:00,
2013-07-31 14:36:00,78.2,63.0,30.09,SSW,202,4.0,7.0,59,0.00,,,0.00,weatherlink.com 1.10,2013-07-31 18:36:00,
2013-07-31 14:51:00,78.2,62.0,30.09,WSW,248,0.0,4.0,58,0.00,,,0.00,weatherlink.com 1.10,2013-07-31 18:51:00,
2013-07-31 15:06:00,78.1,64.0,30.08,South,169,0.0,6.0,62,0.00,,,0.00,weatherlink.com 1.10,2013-07-31 19:06:00,
2013-07-31 15:21:00,78.1,62.0,30.08,South,183,0.0,4.0,59,0.00,,,0.00,weatherlink.com 1.10,2013-07-31 19:21:00,
2013-07-31 15:36:00,77.8,63.0,30.07,SSW,203,2.0,5.0,61,0.00,,,0.00,weatherlink.com 1.10,2013-07-31 19:36:00,
2013-07-31 15:51:00,76.7,65.0,30.07,SSE,159,2.0,5.0,67,0.00,,,0.00,weatherlink.com 1.10,2013-07-31 19:51:00,
2013-07-31 16:06:00,76.5,64.0,30.07,SSW,196,0.0,5.0,66,0.00,,,0.00,weatherlink.com 1.10,2013-07-31 20:06:00,
2013-07-31 16:22:00,76.9,63.0,30.06,SE,135,3.0,5.0,63,0.00,,,0.00,weatherlink.com 1.10,2013-07-31 20:22:00,
2013-07-31 16:36:00,77.7,64.0,30.06,SSW,209,0.0,5.0,63,0.00,,,0.00,weatherlink.com 1.10,2013-07-31 20:36:00,
2013-07-31 16:51:00,78.6,63.0,30.05,SSW,201,3.0,5.0,60,0.00,,,0.00,weatherlink.com 1.10,2013-07-31 20:51:00,
2013-07-31 17:06:00,78.4,64.0,30.05,South,173,2.0,5.0,61,0.00,,,0.00,weatherlink.com 1.10,2013-07-31 21:06:00,
2013-07-31 17:21:00,78.5,64.0,30.05,South,184,2.0,5.0,62,0.00,,,0.00,weatherlink.com 1.10,2013-07-31 21:21:00,
2013-07-31 17:36:00,77.7,64.0,30.05,South,171,0.0,4.0,63,0.00,,,0.00,weatherlink.com 1.10,2013-07-31 21:36:00,
2013-07-31 17:51:00,76.8,64.0,30.05,SW,214,3.0,6.0,64,0.00,,,0.00,weatherlink.com 1.10,2013-07-31 21:51:00,
2013-07-31 18:06:00,76.2,64.0,30.05,WSW,253,0.0,5.0,65,0.00,,,0.00,weatherlink.com 1.10,2013-07-31 22:06:00,
2013-07-31 18:21:00,76.2,64.0,30.05,SSW,210,1.0,4.0,65,0.00,,,0.00,weatherlink.com 1.10,2013-07-31 22:21:00,
2013-07-31 18:36:00,75.8,64.0,30.05,South,182,0.0,3.0,66,0.00,,,0.00,weatherlink.com 1.10,2013-07-31 22:36:00,
2013-07-31 18:51:00,75.1,63.0,30.04,SSE,158,0.0,2.0,67,0.00,,,0.00,weatherlink.com 1.10,2013-07-31 22:51:00,
2013-07-31 19:06:00,74.2,64.0,30.03,West,269,0.0,2.0,70,0.00,,,0.00,weatherlink.com 1.10,2013-07-31 23:06:00,
2013-07-31 19:21:00,73.4,64.0,30.03,South,182,0.0,2.0,72,0.00,,,0.00,weatherlink.com 1.10,2013-07-31 23:21:00,
2013-07-31 19:36:00,72.7,64.0,30.03,South,179,0.0,2.0,73,0.00,,,0.00,weatherlink.com 1.10,2013-07-31 23:36:00,
2013-07-31 19:51:00,71.6,64.0,30.03,South,179,0.0,0.0,76,0.00,,,0.00,weatherlink.com 1.10,2013-07-31 23:51:00,
2013-07-31 20:06:00,70.1,63.0,30.03,South,179,0.0,0.0,79,0.00,,,0.00,weatherlink.com 1.10,2013-08-01 00:06:00,
2013-07-31 20:21:00,68.7,63.0,30.02,South,179,0.0,1.0,83,0.00,,,0.00,weatherlink.com 1.10,2013-08-01 00:21:00,
2013-07-31 20:36:00,67.7,63.0,30.02,South,179,0.0,1.0,85,0.00,,,0.00,weatherlink.com 1.10,2013-08-01 00:36:00,
2013-07-31 20:51:00,67.3,62.0,30.02,South,176,0.0,0.0,84,0.00,,,0.00,weatherlink.com 1.10,2013-08-01 00:51:00,
2013-07-31 21:07:00,67.3,63.0,30.03,South,176,0.0,0.0,85,0.00,,,0.00,weatherlink.com 1.10,2013-08-01 01:07:00,
2013-07-31 21:37:00,66.1,62.0,30.03,South,176,0.0,0.0,85,0.00,,,0.00,weatherlink.com 1.10,2013-08-01 01:37:00,
2013-07-31 21:51:00,65.7,62.0,30.03,South,176,0.0,1.0,87,0.00,,,0.00,weatherlink.com 1.10,2013-08-01 01:51:00,
2013-07-31 22:07:00,65.0,62.0,30.03,South,176,0.0,0.0,89,0.00,,,0.00,weatherlink.com 1.10,2013-08-01 02:07:00,
2013-07-31 22:22:00,64.6,61.0,30.03,South,176,0.0,0.0,89,0.00,,,0.00,weatherlink.com 1.10,2013-08-01 02:22:00,
2013-07-31 22:37:00,64.5,62.0,30.03,South,176,0.0,0.0,90,0.00,,,0.00,weatherlink.com 1.10,2013-08-01 02:37:00,
2013-07-31 22:52:00,64.5,62.0,30.02,NNE,26,2.0,4.0,91,0.00,,,0.00,weatherlink.com 1.10,2013-08-01 02:52:00,
2013-07-31 23:07:00,64.7,62.0,30.02,NNE,26,0.0,0.0,90,0.00,,,0.00,weatherlink.com 1.10,2013-08-01 03:07:00,
2013-07-31 23:22:00,64.8,62.0,30.02,NNE,27,0.0,1.0,91,0.00,,,0.00,weatherlink.com 1.10,2013-08-01 03:22:00,
2013-07-31 23:37:00,64.7,62.0,30.02,NNE,27,0.0,0.0,91,0.00,,,0.00,weatherlink.com 1.10,2013-08-01 03:37:00,
2013-07-31 23:52:00,64.6,62.0,30.02,NNE,27,0.0,0.0,91,0.00,,,0.00,weatherlink.com 1.10,2013-08-01 03:52:00,